sensor_id;sensor_type;location;lat;lon;timestamp;P1;P2;P0
12542;PMS3003;6337;49.556;25.594;2024-01-10T00:00:16;21.95;8.52;
12542;PMS3003;6337;49.556;25.594;2024-01-10T00:02:44;6.95;5.25;
12542;PMS3003;6337;49.556;25.594;2024-01-10T00:05:11;13.90;6.65;
12542;PMS3003;6337;49.556;25.594;2024-01-10T00:07:38;7.65;6.65;
12542;PMS3003;6337;49.556;25.594;2024-01-10T00:10:06;15.55;8.18;
12542;PMS3003;6337;49.556;25.594;2024-01-10T00:12:35;15.95;7.25;
12542;PMS3003;6337;49.556;25.594;2024-01-10T00:15:03;20.23;8.10;
12542;PMS3003;6337;49.556;25.594;2024-01-10T00:17:31;17.30;7.85;
12542;PMS3003;6337;49.556;25.594;2024-01-10T00:19:58;27.85;9.52;
12542;PMS3003;6337;49.556;25.594;2024-01-10T00:22:25;13.93;8.48;
12542;PMS3003;6337;49.556;25.594;2024-01-10T00:24:53;14.70;7.10;
12542;PMS3003;6337;49.556;25.594;2024-01-10T00:27:20;10.45;8.07;
12542;PMS3003;6337;49.556;25.594;2024-01-10T00:29:49;8.10;6.28;
12542;PMS3003;6337;49.556;25.594;2024-01-10T00:32:17;14.20;8.30;
12542;PMS3003;6337;49.556;25.594;2024-01-10T00:34:44;11.13;7.22;
12542;PMS3003;6337;49.556;25.594;2024-01-10T00:37:11;16.55;8.68;
12542;PMS3003;6337;49.556;25.594;2024-01-10T00:39:38;12.60;7.47;
12542;PMS3003;6337;49.556;25.594;2024-01-10T00:42:07;24.83;10.82;
12542;PMS3003;6337;49.556;25.594;2024-01-10T00:44:34;19.08;8.15;
12542;PMS3003;6337;49.556;25.594;2024-01-10T00:47:03;28.95;10.35;
12542;PMS3003;6337;49.556;25.594;2024-01-10T00:49:31;18.50;9.15;
12542;PMS3003;6337;49.556;25.594;2024-01-10T00:51:58;23.10;9.18;
12542;PMS3003;6337;49.556;25.594;2024-01-10T00:54:25;16.80;9.68;
12542;PMS3003;6337;49.556;25.594;2024-01-10T00:56:52;12.45;6.55;
12542;PMS3003;6337;49.556;25.594;2024-01-10T00:59:19;11.60;8.15;
12542;PMS3003;6337;49.556;25.594;2024-01-10T01:01:47;26.35;11.68;
12542;PMS3003;6337;49.556;25.594;2024-01-10T01:04:15;16.00;8.93;
12542;PMS3003;6337;49.556;25.594;2024-01-10T01:06:43;24.52;10.38;
12542;PMS3003;6337;49.556;25.594;2024-01-10T01:09:10;11.25;8.85;
12542;PMS3003;6337;49.556;25.594;2024-01-10T01:11:38;16.80;7.88;
12542;PMS3003;6337;49.556;25.594;2024-01-10T01:14:06;7.57;6.82;
12542;PMS3003;6337;49.556;25.594;2024-01-10T01:16:33;11.10;7.30;
12542;PMS3003;6337;49.556;25.594;2024-01-10T01:19:00;28.55;7.60;
12542;PMS3003;6337;49.556;25.594;2024-01-10T01:21:29;14.13;8.10;
12542;PMS3003;6337;49.556;25.594;2024-01-10T01:23:56;23.23;7.63;
12542;PMS3003;6337;49.556;25.594;2024-01-10T01:26:23;14.32;9.45;
12542;PMS3003;6337;49.556;25.594;2024-01-10T01:28:50;13.15;8.25;
12542;PMS3003;6337;49.556;25.594;2024-01-10T01:31:17;16.00;9.65;
12542;PMS3003;6337;49.556;25.594;2024-01-10T01:33:45;14.10;9.80;
12542;PMS3003;6337;49.556;25.594;2024-01-10T01:36:12;17.70;9.52;
12542;PMS3003;6337;49.556;25.594;2024-01-10T01:38:42;21.50;13.32;
12542;PMS3003;6337;49.556;25.594;2024-01-10T01:41:09;16.40;12.00;
12542;PMS3003;6337;49.556;25.594;2024-01-10T01:43:36;33.22;13.43;
12542;PMS3003;6337;49.556;25.594;2024-01-10T01:46:04;46.05;18.60;
12542;PMS3003;6337;49.556;25.594;2024-01-10T01:48:31;28.52;16.05;
12542;PMS3003;6337;49.556;25.594;2024-01-10T01:51:00;34.45;13.52;
12542;PMS3003;6337;49.556;25.594;2024-01-10T01:53:30;26.42;12.75;
12542;PMS3003;6337;49.556;25.594;2024-01-10T01:55:58;36.75;11.25;
12542;PMS3003;6337;49.556;25.594;2024-01-10T01:58:29;17.17;6.88;
12542;PMS3003;6337;49.556;25.594;2024-01-10T02:00:56;11.00;7.43;
12542;PMS3003;6337;49.556;25.594;2024-01-10T02:03:23;8.13;7.30;
12542;PMS3003;6337;49.556;25.594;2024-01-10T02:05:51;19.27;9.40;
12542;PMS3003;6337;49.556;25.594;2024-01-10T02:08:19;24.92;13.57;
12542;PMS3003;6337;49.556;25.594;2024-01-10T02:10:47;15.55;10.25;
12542;PMS3003;6337;49.556;25.594;2024-01-10T02:13:16;24.80;10.10;
12542;PMS3003;6337;49.556;25.594;2024-01-10T02:15:43;9.20;6.57;
12542;PMS3003;6337;49.556;25.594;2024-01-10T02:18:10;11.23;6.50;
12542;PMS3003;6337;49.556;25.594;2024-01-10T02:20:42;15.40;9.63;
12542;PMS3003;6337;49.556;25.594;2024-01-10T02:23:12;18.65;7.68;
12542;PMS3003;6337;49.556;25.594;2024-01-10T02:25:41;14.25;8.13;
12542;PMS3003;6337;49.556;25.594;2024-01-10T02:28:08;7.32;6.63;
12542;PMS3003;6337;49.556;25.594;2024-01-10T02:30:36;9.30;5.45;
12542;PMS3003;6337;49.556;25.594;2024-01-10T02:33:03;5.38;4.47;
12542;PMS3003;6337;49.556;25.594;2024-01-10T02:35:31;17.13;6.43;
12542;PMS3003;6337;49.556;25.594;2024-01-10T02:37:58;10.95;7.10;
12542;PMS3003;6337;49.556;25.594;2024-01-10T02:40:26;8.57;6.88;
12542;PMS3003;6337;49.556;25.594;2024-01-10T02:42:55;10.48;7.93;
12542;PMS3003;6337;49.556;25.594;2024-01-10T02:45:22;15.98;7.05;
12542;PMS3003;6337;49.556;25.594;2024-01-10T02:47:49;10.93;7.35;
12542;PMS3003;6337;49.556;25.594;2024-01-10T02:50:16;14.60;5.53;
12542;PMS3003;6337;49.556;25.594;2024-01-10T02:52:44;7.00;4.80;
12542;PMS3003;6337;49.556;25.594;2024-01-10T02:55:11;20.38;7.63;
12542;PMS3003;6337;49.556;25.594;2024-01-10T02:57:38;24.17;7.90;
12542;PMS3003;6337;49.556;25.594;2024-01-10T03:00:08;15.10;6.40;
12542;PMS3003;6337;49.556;25.594;2024-01-10T03:02:36;6.38;5.38;
12542;PMS3003;6337;49.556;25.594;2024-01-10T03:05:04;10.43;5.53;
12542;PMS3003;6337;49.556;25.594;2024-01-10T03:07:32;11.60;7.50;
12542;PMS3003;6337;49.556;25.594;2024-01-10T03:09:59;7.82;6.25;
12542;PMS3003;6337;49.556;25.594;2024-01-10T03:12:26;18.17;7.15;
12542;PMS3003;6337;49.556;25.594;2024-01-10T03:14:53;26.65;8.13;
12542;PMS3003;6337;49.556;25.594;2024-01-10T03:17:22;10.77;6.75;
12542;PMS3003;6337;49.556;25.594;2024-01-10T03:19:50;21.95;9.15;
12542;PMS3003;6337;49.556;25.594;2024-01-10T03:22:17;16.13;7.65;
12542;PMS3003;6337;49.556;25.594;2024-01-10T03:24:44;20.13;7.47;
12542;PMS3003;6337;49.556;25.594;2024-01-10T03:27:11;18.45;10.30;
12542;PMS3003;6337;49.556;25.594;2024-01-10T03:29:38;10.40;6.30;
12542;PMS3003;6337;49.556;25.594;2024-01-10T03:32:06;14.80;9.40;
12542;PMS3003;6337;49.556;25.594;2024-01-10T03:34:35;8.20;5.75;
12542;PMS3003;6337;49.556;25.594;2024-01-10T03:37:03;9.70;7.35;
12542;PMS3003;6337;49.556;25.594;2024-01-10T03:39:30;6.88;5.00;
12542;PMS3003;6337;49.556;25.594;2024-01-10T03:41:58;6.72;5.18;
12542;PMS3003;6337;49.556;25.594;2024-01-10T03:44:26;6.05;3.20;
12542;PMS3003;6337;49.556;25.594;2024-01-10T03:46:54;13.70;7.60;
12542;PMS3003;6337;49.556;25.594;2024-01-10T03:49:20;9.60;5.60;
12542;PMS3003;6337;49.556;25.594;2024-01-10T03:51:49;8.68;6.82;
12542;PMS3003;6337;49.556;25.594;2024-01-10T03:54:16;17.02;9.20;
12542;PMS3003;6337;49.556;25.594;2024-01-10T03:56:45;20.85;6.93;
12542;PMS3003;6337;49.556;25.594;2024-01-10T03:59:14;16.65;8.82;
12542;PMS3003;6337;49.556;25.594;2024-01-10T04:01:41;12.88;8.50;
12542;PMS3003;6337;49.556;25.594;2024-01-10T04:04:10;11.40;6.65;
12542;PMS3003;6337;49.556;25.594;2024-01-10T04:06:37;8.68;4.78;
12542;PMS3003;6337;49.556;25.594;2024-01-10T04:09:05;16.55;7.20;
12542;PMS3003;6337;49.556;25.594;2024-01-10T04:11:39;16.58;8.48;
12542;PMS3003;6337;49.556;25.594;2024-01-10T04:14:06;9.50;6.43;
12542;PMS3003;6337;49.556;25.594;2024-01-10T04:16:33;8.98;6.50;
12542;PMS3003;6337;49.556;25.594;2024-01-10T04:19:01;26.95;6.70;
12542;PMS3003;6337;49.556;25.594;2024-01-10T04:21:28;8.55;6.18;
12542;PMS3003;6337;49.556;25.594;2024-01-10T04:23:55;13.63;7.35;
12542;PMS3003;6337;49.556;25.594;2024-01-10T04:26:27;14.73;7.88;
12542;PMS3003;6337;49.556;25.594;2024-01-10T04:28:54;4.22;3.78;
12542;PMS3003;6337;49.556;25.594;2024-01-10T04:31:24;7.90;3.95;
12542;PMS3003;6337;49.556;25.594;2024-01-10T04:33:51;11.23;5.45;
12542;PMS3003;6337;49.556;25.594;2024-01-10T04:36:20;7.03;5.97;
12542;PMS3003;6337;49.556;25.594;2024-01-10T04:38:48;5.63;4.70;
12542;PMS3003;6337;49.556;25.594;2024-01-10T04:41:15;4.75;3.90;
12542;PMS3003;6337;49.556;25.594;2024-01-10T04:43:44;4.82;4.40;
12542;PMS3003;6337;49.556;25.594;2024-01-10T04:46:11;11.07;7.07;
12542;PMS3003;6337;49.556;25.594;2024-01-10T04:48:39;16.33;6.53;
12542;PMS3003;6337;49.556;25.594;2024-01-10T04:51:06;8.00;7.18;
12542;PMS3003;6337;49.556;25.594;2024-01-10T04:53:33;8.15;5.05;
12542;PMS3003;6337;49.556;25.594;2024-01-10T04:56:00;11.48;5.55;
12542;PMS3003;6337;49.556;25.594;2024-01-10T04:58:28;9.23;5.47;
12542;PMS3003;6337;49.556;25.594;2024-01-10T05:00:59;14.38;4.45;
12542;PMS3003;6337;49.556;25.594;2024-01-10T05:03:28;5.47;4.65;
12542;PMS3003;6337;49.556;25.594;2024-01-10T05:05:55;11.90;6.82;
12542;PMS3003;6337;49.556;25.594;2024-01-10T05:08:23;10.23;6.10;
12542;PMS3003;6337;49.556;25.594;2024-01-10T05:10:51;10.93;6.10;
12542;PMS3003;6337;49.556;25.594;2024-01-10T05:13:18;19.08;7.53;
12542;PMS3003;6337;49.556;25.594;2024-01-10T05:15:45;7.05;5.32;
12542;PMS3003;6337;49.556;25.594;2024-01-10T05:18:14;16.02;8.93;
12542;PMS3003;6337;49.556;25.594;2024-01-10T05:20:44;15.23;7.80;
12542;PMS3003;6337;49.556;25.594;2024-01-10T05:23:11;9.23;6.47;
12542;PMS3003;6337;49.556;25.594;2024-01-10T05:25:38;8.15;7.10;
12542;PMS3003;6337;49.556;25.594;2024-01-10T05:28:05;12.68;5.22;
12542;PMS3003;6337;49.556;25.594;2024-01-10T05:30:33;10.65;5.90;
12542;PMS3003;6337;49.556;25.594;2024-01-10T05:33:00;12.70;8.02;
12542;PMS3003;6337;49.556;25.594;2024-01-10T05:35:31;10.75;5.95;
12542;PMS3003;6337;49.556;25.594;2024-01-10T05:37:59;10.82;5.68;
12542;PMS3003;6337;49.556;25.594;2024-01-10T05:40:27;10.30;6.47;
12542;PMS3003;6337;49.556;25.594;2024-01-10T05:42:55;8.13;5.13;
12542;PMS3003;6337;49.556;25.594;2024-01-10T05:45:22;9.70;5.47;
12542;PMS3003;6337;49.556;25.594;2024-01-10T05:47:50;16.38;9.60;
12542;PMS3003;6337;49.556;25.594;2024-01-10T05:50:17;7.45;4.57;
12542;PMS3003;6337;49.556;25.594;2024-01-10T05:52:46;13.50;4.03;
12542;PMS3003;6337;49.556;25.594;2024-01-10T05:55:13;12.70;7.82;
12542;PMS3003;6337;49.556;25.594;2024-01-10T05:57:41;13.00;7.10;
12542;PMS3003;6337;49.556;25.594;2024-01-10T06:00:09;10.73;5.38;
12542;PMS3003;6337;49.556;25.594;2024-01-10T06:02:41;14.73;5.38;
12542;PMS3003;6337;49.556;25.594;2024-01-10T06:05:10;3.72;2.85;
12542;PMS3003;6337;49.556;25.594;2024-01-10T06:07:40;10.18;7.47;
12542;PMS3003;6337;49.556;25.594;2024-01-10T06:10:09;11.30;7.18;
12542;PMS3003;6337;49.556;25.594;2024-01-10T06:12:36;15.02;7.05;
12542;PMS3003;6337;49.556;25.594;2024-01-10T06:15:05;16.48;5.72;
12542;PMS3003;6337;49.556;25.594;2024-01-10T06:17:33;12.73;7.70;
12542;PMS3003;6337;49.556;25.594;2024-01-10T06:20:02;8.95;5.53;
12542;PMS3003;6337;49.556;25.594;2024-01-10T06:22:29;10.63;6.90;
12542;PMS3003;6337;49.556;25.594;2024-01-10T06:25:00;5.85;5.32;
12542;PMS3003;6337;49.556;25.594;2024-01-10T06:27:28;4.95;4.50;
12542;PMS3003;6337;49.556;25.594;2024-01-10T06:29:59;14.38;6.68;
12542;PMS3003;6337;49.556;25.594;2024-01-10T06:32:28;10.07;6.35;
12542;PMS3003;6337;49.556;25.594;2024-01-10T06:34:55;9.05;4.70;
12542;PMS3003;6337;49.556;25.594;2024-01-10T06:37:22;11.25;6.97;
12542;PMS3003;6337;49.556;25.594;2024-01-10T06:39:49;8.63;5.85;
12542;PMS3003;6337;49.556;25.594;2024-01-10T06:42:16;9.27;5.95;
12542;PMS3003;6337;49.556;25.594;2024-01-10T06:44:45;11.93;4.93;
12542;PMS3003;6337;49.556;25.594;2024-01-10T06:47:12;8.10;4.95;
12542;PMS3003;6337;49.556;25.594;2024-01-10T06:49:40;13.80;7.55;
12542;PMS3003;6337;49.556;25.594;2024-01-10T06:52:07;11.25;4.40;
12542;PMS3003;6337;49.556;25.594;2024-01-10T06:54:34;3.47;3.17;
12542;PMS3003;6337;49.556;25.594;2024-01-10T06:57:01;8.82;5.40;
12542;PMS3003;6337;49.556;25.594;2024-01-10T06:59:29;10.88;3.75;
12542;PMS3003;6337;49.556;25.594;2024-01-10T07:01:58;9.23;5.15;
12542;PMS3003;6337;49.556;25.594;2024-01-10T07:04:26;6.15;3.88;
12542;PMS3003;6337;49.556;25.594;2024-01-10T07:06:56;11.57;7.20;
12542;PMS3003;6337;49.556;25.594;2024-01-10T07:09:23;7.03;4.18;
12542;PMS3003;6337;49.556;25.594;2024-01-10T07:11:50;5.20;4.43;
12542;PMS3003;6337;49.556;25.594;2024-01-10T07:14:17;7.90;4.38;
12542;PMS3003;6337;49.556;25.594;2024-01-10T07:16:46;10.88;5.53;
12542;PMS3003;6337;49.556;25.594;2024-01-10T07:19:18;16.02;6.55;
12542;PMS3003;6337;49.556;25.594;2024-01-10T07:21:46;22.25;6.13;
12542;PMS3003;6337;49.556;25.594;2024-01-10T07:24:13;6.45;3.97;
12542;PMS3003;6337;49.556;25.594;2024-01-10T07:26:40;5.68;4.43;
12542;PMS3003;6337;49.556;25.594;2024-01-10T07:29:07;6.18;5.00;
12542;PMS3003;6337;49.556;25.594;2024-01-10T07:31:35;5.93;5.43;
12542;PMS3003;6337;49.556;25.594;2024-01-10T07:34:02;13.85;5.45;
12542;PMS3003;6337;49.556;25.594;2024-01-10T07:36:31;9.20;4.72;
12542;PMS3003;6337;49.556;25.594;2024-01-10T07:39:03;11.90;6.00;
12542;PMS3003;6337;49.556;25.594;2024-01-10T07:41:30;10.40;6.43;
12542;PMS3003;6337;49.556;25.594;2024-01-10T07:43:59;6.53;4.88;
12542;PMS3003;6337;49.556;25.594;2024-01-10T07:46:28;15.80;7.28;
12542;PMS3003;6337;49.556;25.594;2024-01-10T07:48:58;5.30;4.55;
12542;PMS3003;6337;49.556;25.594;2024-01-10T07:51:26;4.35;3.67;
12542;PMS3003;6337;49.556;25.594;2024-01-10T07:54:03;6.53;3.80;
12542;PMS3003;6337;49.556;25.594;2024-01-10T07:56:31;11.48;5.20;
12542;PMS3003;6337;49.556;25.594;2024-01-10T07:58:58;14.55;4.50;
12542;PMS3003;6337;49.556;25.594;2024-01-10T08:01:27;8.02;3.67;
12542;PMS3003;6337;49.556;25.594;2024-01-10T08:03:54;3.17;2.95;
12542;PMS3003;6337;49.556;25.594;2024-01-10T08:06:21;5.07;2.90;
12542;PMS3003;6337;49.556;25.594;2024-01-10T08:08:49;3.38;3.08;
12542;PMS3003;6337;49.556;25.594;2024-01-10T08:11:18;4.60;3.75;
12542;PMS3003;6337;49.556;25.594;2024-01-10T08:13:46;4.93;3.50;
12542;PMS3003;6337;49.556;25.594;2024-01-10T08:16:13;10.80;5.05;
12542;PMS3003;6337;49.556;25.594;2024-01-10T08:18:40;5.32;2.90;
12542;PMS3003;6337;49.556;25.594;2024-01-10T08:21:08;13.55;3.78;
12542;PMS3003;6337;49.556;25.594;2024-01-10T08:23:35;5.85;3.08;
12542;PMS3003;6337;49.556;25.594;2024-01-10T08:26:03;7.05;4.40;
12542;PMS3003;6337;49.556;25.594;2024-01-10T08:28:43;6.18;3.95;
12542;PMS3003;6337;49.556;25.594;2024-01-10T08:31:09;5.50;3.17;
12542;PMS3003;6337;49.556;25.594;2024-01-10T08:33:39;10.27;4.70;
12542;PMS3003;6337;49.556;25.594;2024-01-10T08:36:07;3.42;2.17;
12542;PMS3003;6337;49.556;25.594;2024-01-10T08:38:35;4.35;3.97;
12542;PMS3003;6337;49.556;25.594;2024-01-10T08:41:02;2.45;2.20;
12542;PMS3003;6337;49.556;25.594;2024-01-10T08:43:30;4.25;3.85;
12542;PMS3003;6337;49.556;25.594;2024-01-10T08:45:58;17.98;7.45;
12542;PMS3003;6337;49.556;25.594;2024-01-10T08:48:26;20.42;10.55;
12542;PMS3003;6337;49.556;25.594;2024-01-10T08:50:55;3.70;3.38;
12542;PMS3003;6337;49.556;25.594;2024-01-10T08:53:22;5.85;2.95;
12542;PMS3003;6337;49.556;25.594;2024-01-10T08:55:49;3.35;2.80;
12542;PMS3003;6337;49.556;25.594;2024-01-10T08:58:17;4.65;3.40;
12542;PMS3003;6337;49.556;25.594;2024-01-10T09:00:44;3.80;3.15;
12542;PMS3003;6337;49.556;25.594;2024-01-10T09:03:13;5.10;4.50;
12542;PMS3003;6337;49.556;25.594;2024-01-10T09:05:42;4.30;3.90;
12542;PMS3003;6337;49.556;25.594;2024-01-10T09:08:09;10.90;4.80;
12542;PMS3003;6337;49.556;25.594;2024-01-10T09:10:36;10.15;4.40;
12542;PMS3003;6337;49.556;25.594;2024-01-10T09:13:04;5.18;3.10;
12542;PMS3003;6337;49.556;25.594;2024-01-10T09:15:32;7.15;5.72;
12542;PMS3003;6337;49.556;25.594;2024-01-10T09:17:59;6.68;3.03;
12542;PMS3003;6337;49.556;25.594;2024-01-10T09:20:28;5.65;4.38;
12542;PMS3003;6337;49.556;25.594;2024-01-10T09:22:55;12.88;3.97;
12542;PMS3003;6337;49.556;25.594;2024-01-10T09:25:22;7.65;3.92;
12542;PMS3003;6337;49.556;25.594;2024-01-10T09:27:49;10.20;6.47;
12542;PMS3003;6337;49.556;25.594;2024-01-10T09:30:16;20.27;6.32;
12542;PMS3003;6337;49.556;25.594;2024-01-10T09:32:44;9.02;4.32;
12542;PMS3003;6337;49.556;25.594;2024-01-10T09:35:12;6.05;4.30;
12542;PMS3003;6337;49.556;25.594;2024-01-10T09:37:41;8.38;4.45;
12542;PMS3003;6337;49.556;25.594;2024-01-10T09:40:10;4.40;4.00;
12542;PMS3003;6337;49.556;25.594;2024-01-10T09:42:41;8.23;3.08;
12542;PMS3003;6337;49.556;25.594;2024-01-10T09:45:08;8.90;3.95;
12542;PMS3003;6337;49.556;25.594;2024-01-10T09:47:37;4.57;3.88;
12542;PMS3003;6337;49.556;25.594;2024-01-10T09:50:08;10.68;4.70;
12542;PMS3003;6337;49.556;25.594;2024-01-10T09:52:38;11.05;4.70;
12542;PMS3003;6337;49.556;25.594;2024-01-10T09:55:11;5.30;3.60;
12542;PMS3003;6337;49.556;25.594;2024-01-10T09:57:41;8.80;2.72;
12542;PMS3003;6337;49.556;25.594;2024-01-10T10:00:09;6.10;3.88;
12542;PMS3003;6337;49.556;25.594;2024-01-10T10:02:38;5.32;4.30;
12542;PMS3003;6337;49.556;25.594;2024-01-10T10:05:08;6.20;4.93;
12542;PMS3003;6337;49.556;25.594;2024-01-10T10:07:46;6.60;4.20;
12542;PMS3003;6337;49.556;25.594;2024-01-10T10:10:13;3.55;3.25;
12542;PMS3003;6337;49.556;25.594;2024-01-10T10:12:41;6.28;4.38;
12542;PMS3003;6337;49.556;25.594;2024-01-10T10:15:10;4.28;3.65;
12542;PMS3003;6337;49.556;25.594;2024-01-10T10:17:38;4.95;4.15;
12542;PMS3003;6337;49.556;25.594;2024-01-10T10:20:12;5.88;4.20;
12542;PMS3003;6337;49.556;25.594;2024-01-10T10:22:41;7.47;5.20;
12542;PMS3003;6337;49.556;25.594;2024-01-10T10:25:26;7.13;6.47;
12542;PMS3003;6337;49.556;25.594;2024-01-10T10:27:59;6.35;5.28;
12542;PMS3003;6337;49.556;25.594;2024-01-10T10:30:26;7.07;5.05;
12542;PMS3003;6337;49.556;25.594;2024-01-10T10:32:54;5.05;4.38;
12542;PMS3003;6337;49.556;25.594;2024-01-10T10:35:25;8.38;4.47;
12542;PMS3003;6337;49.556;25.594;2024-01-10T10:37:56;11.82;5.03;
12542;PMS3003;6337;49.556;25.594;2024-01-10T10:40:36;8.30;3.10;
12542;PMS3003;6337;49.556;25.594;2024-01-10T10:43:04;9.57;4.95;
12542;PMS3003;6337;49.556;25.594;2024-01-10T10:45:32;5.57;4.63;
12542;PMS3003;6337;49.556;25.594;2024-01-10T10:48:02;8.70;4.80;
12542;PMS3003;6337;49.556;25.594;2024-01-10T10:50:32;8.13;4.93;
12542;PMS3003;6337;49.556;25.594;2024-01-10T10:53:02;11.05;7.05;
12542;PMS3003;6337;49.556;25.594;2024-01-10T10:55:36;6.60;5.13;
12542;PMS3003;6337;49.556;25.594;2024-01-10T10:58:06;5.38;3.72;
12542;PMS3003;6337;49.556;25.594;2024-01-10T11:00:34;10.32;5.55;
12542;PMS3003;6337;49.556;25.594;2024-01-10T11:03:01;32.55;7.40;
12542;PMS3003;6337;49.556;25.594;2024-01-10T11:05:31;7.53;5.32;
12542;PMS3003;6337;49.556;25.594;2024-01-10T11:08:01;8.05;5.45;
12542;PMS3003;6337;49.556;25.594;2024-01-10T11:10:37;6.80;4.78;
12542;PMS3003;6337;49.556;25.594;2024-01-10T11:13:11;5.28;4.85;
12542;PMS3003;6337;49.556;25.594;2024-01-10T11:15:59;6.63;4.65;
12542;PMS3003;6337;49.556;25.594;2024-01-10T11:18:51;9.32;5.95;
12542;PMS3003;6337;49.556;25.594;2024-01-10T11:21:36;8.10;4.32;
12542;PMS3003;6337;49.556;25.594;2024-01-10T11:24:15;4.45;4.00;
12542;PMS3003;6337;49.556;25.594;2024-01-10T11:26:46;4.88;3.97;
12542;PMS3003;6337;49.556;25.594;2024-01-10T11:29:15;8.40;5.50;
12542;PMS3003;6337;49.556;25.594;2024-01-10T11:31:43;12.13;7.43;
12542;PMS3003;6337;49.556;25.594;2024-01-10T11:34:24;12.32;5.88;
12542;PMS3003;6337;49.556;25.594;2024-01-10T11:39:41;8.43;4.50;
12542;PMS3003;6337;49.556;25.594;2024-01-10T11:42:10;17.67;7.50;
12542;PMS3003;6337;49.556;25.594;2024-01-10T11:44:49;15.10;7.10;
12542;PMS3003;6337;49.556;25.594;2024-01-10T11:47:16;10.13;6.28;
12542;PMS3003;6337;49.556;25.594;2024-01-10T11:49:54;8.43;5.70;
12542;PMS3003;6337;49.556;25.594;2024-01-10T11:52:31;7.88;4.75;
12542;PMS3003;6337;49.556;25.594;2024-01-10T11:54:59;10.70;5.72;
12542;PMS3003;6337;49.556;25.594;2024-01-10T11:57:32;11.02;5.72;
12542;PMS3003;6337;49.556;25.594;2024-01-10T11:59:59;10.57;6.43;
12542;PMS3003;6337;49.556;25.594;2024-01-10T12:02:29;10.73;6.85;
12542;PMS3003;6337;49.556;25.594;2024-01-10T12:04:57;16.75;6.60;
12542;PMS3003;6337;49.556;25.594;2024-01-10T12:07:24;17.60;6.55;
12542;PMS3003;6337;49.556;25.594;2024-01-10T12:09:52;10.30;5.70;
12542;PMS3003;6337;49.556;25.594;2024-01-10T12:12:19;9.85;5.43;
12542;PMS3003;6337;49.556;25.594;2024-01-10T12:14:50;6.43;5.10;
12542;PMS3003;6337;49.556;25.594;2024-01-10T12:17:17;13.57;5.50;
12542;PMS3003;6337;49.556;25.594;2024-01-10T12:19:45;11.13;5.93;
12542;PMS3003;6337;49.556;25.594;2024-01-10T12:22:13;4.25;3.95;
12542;PMS3003;6337;49.556;25.594;2024-01-10T12:24:44;11.60;5.85;
12542;PMS3003;6337;49.556;25.594;2024-01-10T12:27:15;11.55;7.20;
12542;PMS3003;6337;49.556;25.594;2024-01-10T12:29:44;14.20;6.30;
12542;PMS3003;6337;49.556;25.594;2024-01-10T12:32:17;5.97;4.90;
12542;PMS3003;6337;49.556;25.594;2024-01-10T12:34:46;14.43;7.75;
12542;PMS3003;6337;49.556;25.594;2024-01-10T12:37:13;10.40;5.93;
12542;PMS3003;6337;49.556;25.594;2024-01-10T12:39:40;12.88;8.35;
12542;PMS3003;6337;49.556;25.594;2024-01-10T12:42:08;11.55;6.88;
12542;PMS3003;6337;49.556;25.594;2024-01-10T12:44:35;17.10;7.70;
12542;PMS3003;6337;49.556;25.594;2024-01-10T12:47:06;11.77;6.15;
12542;PMS3003;6337;49.556;25.594;2024-01-10T12:49:34;12.27;6.60;
12542;PMS3003;6337;49.556;25.594;2024-01-10T12:52:02;5.85;5.22;
12542;PMS3003;6337;49.556;25.594;2024-01-10T12:54:32;9.85;8.52;
12542;PMS3003;6337;49.556;25.594;2024-01-10T12:57:00;11.63;6.45;
12542;PMS3003;6337;49.556;25.594;2024-01-10T12:59:28;16.52;6.43;
12542;PMS3003;6337;49.556;25.594;2024-01-10T13:01:55;14.38;6.53;
12542;PMS3003;6337;49.556;25.594;2024-01-10T13:04:24;6.18;5.55;
12542;PMS3003;6337;49.556;25.594;2024-01-10T13:06:51;19.75;11.18;
12542;PMS3003;6337;49.556;25.594;2024-01-10T13:09:19;14.60;7.25;
12542;PMS3003;6337;49.556;25.594;2024-01-10T13:11:46;16.25;7.38;
12542;PMS3003;6337;49.556;25.594;2024-01-10T13:14:14;14.75;6.45;
12542;PMS3003;6337;49.556;25.594;2024-01-10T13:16:42;13.30;6.75;
12542;PMS3003;6337;49.556;25.594;2024-01-10T13:19:09;11.27;7.40;
12542;PMS3003;6337;49.556;25.594;2024-01-10T13:21:40;15.20;7.88;
12542;PMS3003;6337;49.556;25.594;2024-01-10T13:24:08;20.98;8.93;
12542;PMS3003;6337;49.556;25.594;2024-01-10T13:26:35;16.83;7.57;
12542;PMS3003;6337;49.556;25.594;2024-01-10T13:29:02;9.45;8.45;
12542;PMS3003;6337;49.556;25.594;2024-01-10T13:31:29;11.43;6.80;
12542;PMS3003;6337;49.556;25.594;2024-01-10T13:33:56;9.70;6.32;
12542;PMS3003;6337;49.556;25.594;2024-01-10T13:36:24;11.00;6.85;
12542;PMS3003;6337;49.556;25.594;2024-01-10T13:38:53;11.35;7.38;
12542;PMS3003;6337;49.556;25.594;2024-01-10T13:41:22;13.35;6.70;
12542;PMS3003;6337;49.556;25.594;2024-01-10T13:43:51;17.20;7.10;
12542;PMS3003;6337;49.556;25.594;2024-01-10T13:46:18;11.20;6.45;
12542;PMS3003;6337;49.556;25.594;2024-01-10T13:48:45;8.23;6.35;
12542;PMS3003;6337;49.556;25.594;2024-01-10T13:51:13;15.10;7.72;
12542;PMS3003;6337;49.556;25.594;2024-01-10T13:53:40;13.80;7.30;
12542;PMS3003;6337;49.556;25.594;2024-01-10T13:56:10;11.93;5.72;
12542;PMS3003;6337;49.556;25.594;2024-01-10T13:58:37;11.55;6.13;
12542;PMS3003;6337;49.556;25.594;2024-01-10T14:01:05;13.90;6.88;
12542;PMS3003;6337;49.556;25.594;2024-01-10T14:03:33;15.63;7.95;
12542;PMS3003;6337;49.556;25.594;2024-01-10T14:06:01;20.83;9.15;
12542;PMS3003;6337;49.556;25.594;2024-01-10T14:08:30;14.27;6.88;
12542;PMS3003;6337;49.556;25.594;2024-01-10T14:10:59;16.98;8.07;
12542;PMS3003;6337;49.556;25.594;2024-01-10T14:13:29;7.70;5.57;
12542;PMS3003;6337;49.556;25.594;2024-01-10T14:15:58;14.40;8.23;
12542;PMS3003;6337;49.556;25.594;2024-01-10T14:18:25;11.85;6.97;
12542;PMS3003;6337;49.556;25.594;2024-01-10T14:20:52;17.52;8.68;
12542;PMS3003;6337;49.556;25.594;2024-01-10T14:23:20;18.45;8.00;
12542;PMS3003;6337;49.556;25.594;2024-01-10T14:25:49;14.35;7.38;
12542;PMS3003;6337;49.556;25.594;2024-01-10T14:28:18;12.60;7.00;
12542;PMS3003;6337;49.556;25.594;2024-01-10T14:30:52;12.75;7.07;
12542;PMS3003;6337;49.556;25.594;2024-01-10T14:33:19;15.25;6.65;
12542;PMS3003;6337;49.556;25.594;2024-01-10T14:35:47;14.20;8.43;
12542;PMS3003;6337;49.556;25.594;2024-01-10T14:38:15;14.77;8.07;
12542;PMS3003;6337;49.556;25.594;2024-01-10T14:40:42;15.40;7.43;
12542;PMS3003;6337;49.556;25.594;2024-01-10T14:43:10;18.98;8.40;
12542;PMS3003;6337;49.556;25.594;2024-01-10T14:45:39;19.45;7.85;
12542;PMS3003;6337;49.556;25.594;2024-01-10T14:48:09;18.83;8.73;
12542;PMS3003;6337;49.556;25.594;2024-01-10T14:50:36;14.40;8.68;
12542;PMS3003;6337;49.556;25.594;2024-01-10T14:53:06;16.33;9.23;
12542;PMS3003;6337;49.556;25.594;2024-01-10T14:55:34;16.38;9.73;
12542;PMS3003;6337;49.556;25.594;2024-01-10T14:58:02;21.80;9.52;
12542;PMS3003;6337;49.556;25.594;2024-01-10T15:00:36;21.80;11.00;
12542;PMS3003;6337;49.556;25.594;2024-01-10T15:03:07;24.73;11.73;
12542;PMS3003;6337;49.556;25.594;2024-01-10T15:05:36;23.85;9.13;
12542;PMS3003;6337;49.556;25.594;2024-01-10T15:08:03;25.42;12.68;
12542;PMS3003;6337;49.556;25.594;2024-01-10T15:10:32;15.63;9.85;
12542;PMS3003;6337;49.556;25.594;2024-01-10T15:13:00;18.35;9.85;
12542;PMS3003;6337;49.556;25.594;2024-01-10T15:15:29;25.23;10.07;
12542;PMS3003;6337;49.556;25.594;2024-01-10T15:17:57;13.43;10.43;